createdAt,value
2022-11-11T00:01:32.155Z,8.50
2022-11-11T00:04:20.946Z,8.15
2022-11-11T00:07:08.209Z,8.27
2022-11-11T00:09:55.188Z,7.60
2022-11-11T00:12:42.575Z,7.88
2022-11-11T00:15:30.003Z,7.35
2022-11-11T00:18:34.355Z,7.07
2022-11-11T00:21:43.321Z,6.75
2022-11-11T00:24:49.771Z,6.75
2022-11-11T00:27:37.712Z,7.28
2022-11-11T00:30:24.785Z,6.30
2022-11-11T00:33:11.972Z,6.28
2022-11-11T00:35:59.224Z,6.20
2022-11-11T00:38:48.256Z,6.43
2022-11-11T00:41:35.708Z,5.97
2022-11-11T00:44:22.702Z,5.00
2022-11-11T00:47:27.606Z,5.68
2022-11-11T00:50:35.388Z,5.35
2022-11-11T00:53:27.047Z,4.90
2022-11-11T00:56:16.188Z,5.78
2022-11-11T00:59:03.437Z,5.50
2022-11-11T01:01:50.629Z,5.35
2022-11-11T01:04:37.732Z,4.85
2022-11-11T01:07:25.415Z,4.47
2022-11-11T01:10:12.912Z,5.13
2022-11-11T01:13:13.215Z,5.80
2022-11-11T01:16:03.152Z,4.97
2022-11-11T01:18:52.143Z,4.38
2022-11-11T01:21:39.470Z,3.85
2022-11-11T01:24:26.963Z,3.70
2022-11-11T01:27:13.864Z,3.45
2022-11-11T01:30:02.629Z,3.17
2022-11-11T01:32:49.618Z,3.50
2022-11-11T01:35:40.496Z,3.40
2022-11-11T01:38:27.976Z,2.83
2022-11-11T01:41:36.782Z,2.35
2022-11-11T01:44:46.700Z,2.60
2022-11-11T01:48:16.764Z,3.20
2022-11-11T01:50:59.242Z,3.10
2022-11-11T01:53:50.264Z,2.30
2022-11-11T01:56:38.733Z,3.10
2022-11-11T01:59:26.301Z,2.58
2022-11-11T02:02:20.779Z,3.42
2022-11-11T02:05:29.799Z,2.53
2022-11-11T02:08:32.932Z,2.80
2022-11-11T02:11:37.393Z,2.80
2022-11-11T02:14:43.295Z,2.13
2022-11-11T02:17:33.378Z,2.15
2022-11-11T02:20:24.413Z,2.05
2022-11-11T02:23:17.580Z,2.05
2022-11-11T02:26:08.388Z,2.22
2022-11-11T02:28:57.141Z,1.95
2022-11-11T02:31:44.395Z,2.35
2022-11-11T02:34:32.831Z,2.28
2022-11-11T02:37:23.404Z,1.88
2022-11-11T02:40:13.114Z,1.90
2022-11-11T02:43:01.624Z,2.08
2022-11-11T02:45:48.796Z,2.00
2022-11-11T02:48:36.801Z,2.60
2022-11-11T02:51:24.158Z,2.88
2022-11-11T02:54:11.271Z,2.10
2022-11-11T02:57:10.613Z,1.92
2022-11-11T03:00:01.378Z,2.72
2022-11-11T03:02:48.900Z,2.80
2022-11-11T03:05:36.481Z,2.38
2022-11-11T03:08:23.818Z,2.22
2022-11-11T03:11:10.978Z,3.03
2022-11-11T03:13:59.277Z,2.90
2022-11-11T03:17:05.767Z,2.67
2022-11-11T03:19:52.895Z,2.70
2022-11-11T03:22:55.404Z,2.95
2022-11-11T03:25:44.186Z,2.92
2022-11-11T03:28:31.319Z,2.83
2022-11-11T03:31:18.784Z,3.90
2022-11-11T03:34:22.159Z,3.08
2022-11-11T03:37:30.125Z,3.50
2022-11-11T03:40:17.635Z,3.22
2022-11-11T03:43:05.526Z,3.58
2022-11-11T03:45:53.375Z,3.72
2022-11-11T03:48:40.592Z,3.80
2022-11-11T03:51:29.236Z,3.30
2022-11-11T03:54:16.303Z,2.92
2022-11-11T03:57:21.102Z,3.45
2022-11-11T04:00:14.711Z,3.55
2022-11-11T04:03:25.134Z,3.83
2022-11-11T04:06:30.521Z,3.38
2022-11-11T04:09:37.081Z,3.25
2022-11-11T04:12:26.262Z,3.25
2022-11-11T04:15:30.977Z,3.00
2022-11-11T04:18:18.592Z,2.90
2022-11-11T04:21:23.281Z,3.20
2022-11-11T04:24:38.066Z,3.90
2022-11-11T04:27:27.306Z,3.42
2022-11-11T04:30:13.659Z,2.97
2022-11-11T04:33:01.278Z,3.15
2022-11-11T04:35:51.161Z,3.13
2022-11-11T04:38:55.575Z,3.28
2022-11-11T04:42:06.632Z,3.42
2022-11-11T04:45:09.090Z,2.80
2022-11-11T04:47:59.111Z,2.58
2022-11-11T04:50:46.853Z,2.72
2022-11-11T04:53:34.492Z,2.42
2022-11-11T04:56:39.113Z,2.72
2022-11-11T04:59:29.492Z,2.80
2022-11-11T05:02:35.789Z,2.95
2022-11-11T05:05:23.498Z,3.22
2022-11-11T05:08:27.934Z,2.90
2022-11-11T05:11:15.953Z,2.58
2022-11-11T05:14:21.975Z,2.97
2022-11-11T05:17:28.740Z,2.58
2022-11-11T05:20:38.976Z,2.97
2022-11-11T05:23:52.491Z,2.80
2022-11-11T05:26:38.929Z,2.90
2022-11-11T05:29:26.122Z,2.70
2022-11-11T05:32:18.665Z,2.78
2022-11-11T05:35:06.574Z,3.15
2022-11-11T05:38:09.365Z,3.10
2022-11-11T05:40:57.290Z,3.03
2022-11-11T05:43:45.055Z,3.97
2022-11-11T05:46:32.187Z,3.63
2022-11-11T05:49:19.917Z,4.03
2022-11-11T05:52:08.757Z,3.70
2022-11-11T05:54:57.186Z,3.33
2022-11-11T05:57:44.453Z,3.70
2022-11-11T06:00:31.603Z,4.40
2022-11-11T06:03:18.755Z,4.68
2022-11-11T06:06:06.689Z,4.82
2022-11-11T06:08:54.284Z,4.88
2022-11-11T06:11:42.827Z,5.03
2022-11-11T06:14:30.058Z,4.95
2022-11-11T06:17:17.387Z,6.00
2022-11-11T06:20:05.168Z,5.20
2022-11-11T06:22:58.600Z,5.28
2022-11-11T06:26:02.898Z,5.28
2022-11-11T06:28:53.109Z,5.25
2022-11-11T06:31:40.300Z,4.88
2022-11-11T06:34:27.603Z,5.03
2022-11-11T06:37:14.843Z,5.75
2022-11-11T06:40:01.914Z,5.57
2022-11-11T06:42:48.973Z,5.78
2022-11-11T06:45:38.212Z,5.40
2022-11-11T06:48:27.176Z,5.93
2022-11-11T06:51:15.274Z,6.18
2022-11-11T06:54:02.434Z,5.80
2022-11-11T06:56:50.420Z,6.18
2022-11-11T06:59:37.494Z,5.90
2022-11-11T07:02:26.365Z,6.20
2022-11-11T07:05:13.771Z,5.63
2022-11-11T07:08:04.615Z,6.47
2022-11-11T07:10:52.091Z,7.15
2022-11-11T07:13:39.122Z,7.10
2022-11-11T07:16:26.576Z,7.22
2022-11-11T07:19:15.225Z,7.50
2022-11-11T07:22:02.669Z,6.63
2022-11-11T07:24:49.681Z,7.35
2022-11-11T07:27:39.187Z,7.95
2022-11-11T07:30:27.289Z,7.57
2022-11-11T07:33:14.411Z,8.27
2022-11-11T07:36:03.650Z,8.55
2022-11-11T07:38:51.222Z,8.23
2022-11-11T07:41:38.641Z,7.95
2022-11-11T07:44:25.684Z,7.57
2022-11-11T07:47:13.014Z,7.43
2022-11-11T07:50:04.521Z,7.95
2022-11-11T07:52:56.483Z,8.20
2022-11-11T07:55:43.976Z,7.43
2022-11-11T07:58:31.522Z,7.60
2022-11-11T08:01:18.766Z,8.38
2022-11-11T08:04:06.261Z,7.85
2022-11-11T08:06:54.137Z,7.20
2022-11-11T08:09:42.925Z,7.53
2022-11-11T08:12:59.328Z,6.90
2022-11-11T08:15:46.763Z,6.93
2022-11-11T08:18:34.684Z,6.78
2022-11-11T08:21:22.119Z,6.40
2022-11-11T08:27:19.328Z,5.45
2022-11-11T08:30:09.260Z,5.45
2022-11-11T08:33:26.537Z,5.30
2022-11-11T08:36:08.267Z,4.30
2022-11-11T08:38:55.728Z,4.13
2022-11-11T08:41:45.987Z,5.22
2022-11-11T08:44:34.504Z,3.28
2022-11-11T08:47:23.022Z,5.05
2022-11-11T08:50:10.743Z,5.50
2022-11-11T08:52:58.467Z,2.80
2022-11-11T08:55:45.748Z,4.15
2022-11-11T08:58:33.642Z,4.95
2022-11-11T09:01:22.292Z,4.20
2022-11-11T09:04:43.204Z,3.17
2022-11-11T09:07:20.434Z,3.30
2022-11-11T09:10:08.930Z,2.85
2022-11-11T09:12:58.409Z,2.38
2022-11-11T09:15:45.625Z,2.47
2022-11-11T09:18:34.415Z,2.58
2022-11-11T09:21:22.063Z,2.20
2022-11-11T09:24:09.207Z,2.15
2022-11-11T09:26:57.350Z,2.17
2022-11-11T09:29:44.407Z,1.67
2022-11-11T09:32:31.694Z,1.60
2022-11-11T09:35:20.508Z,2.10
2022-11-11T09:38:08.340Z,1.75
2022-11-11T09:41:11.482Z,1.85
2022-11-11T09:44:01.932Z,1.95
2022-11-11T09:46:57.128Z,1.83
2022-11-11T09:49:59.908Z,2.10
2022-11-11T09:52:55.848Z,1.55
2022-11-11T09:55:45.387Z,1.83
2022-11-11T09:58:36.672Z,2.00
2022-11-11T10:04:24.967Z,1.83
2022-11-11T10:07:19.789Z,2.28
2022-11-11T10:10:18.141Z,2.17
2022-11-11T10:13:05.775Z,2.30
2022-11-11T10:16:02.171Z,2.30
2022-11-11T10:19:04.247Z,2.05
2022-11-11T10:25:18.864Z,1.80
2022-11-11T10:28:08.278Z,1.60
2022-11-11T10:30:56.388Z,2.17
2022-11-11T10:33:50.680Z,1.60
2022-11-11T10:36:44.281Z,3.03
2022-11-11T10:39:46.914Z,2.00
2022-11-11T10:42:39.542Z,2.15
2022-11-11T10:45:41.645Z,1.90
2022-11-11T10:48:43.299Z,2.15
2022-11-11T10:51:38.306Z,1.88
2022-11-11T10:54:28.905Z,1.98
2022-11-11T10:57:21.161Z,2.10
2022-11-11T11:00:13.152Z,2.65
2022-11-11T11:03:09.739Z,2.50
2022-11-11T11:06:03.281Z,3.03
2022-11-11T11:08:55.973Z,2.80
2022-11-11T11:11:50.243Z,3.22
2022-11-11T11:14:42.805Z,2.70
2022-11-11T11:17:39.066Z,2.97
2022-11-11T11:20:26.501Z,2.97
2022-11-11T11:23:13.636Z,3.00
2022-11-11T11:26:03.055Z,2.75
2022-11-11T11:28:58.325Z,3.00
2022-11-11T11:31:47.871Z,2.92
2022-11-11T11:34:51.013Z,3.03
2022-11-11T11:37:51.692Z,2.83
2022-11-11T11:40:53.052Z,2.78
2022-11-11T11:43:43.009Z,2.90
2022-11-11T11:46:34.924Z,2.58
2022-11-11T11:49:34.784Z,2.88
2022-11-11T11:52:37.742Z,2.35
2022-11-11T11:55:34.405Z,3.47
2022-11-11T11:58:37.626Z,2.83
2022-11-11T12:01:36.867Z,3.50
2022-11-11T12:04:45.754Z,3.75
2022-11-11T12:07:52.216Z,3.42
2022-11-11T12:10:46.750Z,3.50
2022-11-11T12:13:41.105Z,3.92
2022-11-11T12:16:42.529Z,7.78
2022-11-11T12:19:44.772Z,4.75
2022-11-11T12:22:46.475Z,5.43
2022-11-11T12:28:42.644Z,4.72
2022-11-11T12:31:41.833Z,5.45
2022-11-11T12:35:02.435Z,6.45
2022-11-11T12:38:04.322Z,6.65
2022-11-11T12:41:06.602Z,6.93
2022-11-11T12:44:02.146Z,8.50
2022-11-11T12:47:05.481Z,8.20
2022-11-11T12:50:00.805Z,9.93
2022-11-11T12:53:02.167Z,9.73
2022-11-11T12:55:56.429Z,10.05
2022-11-11T12:58:49.873Z,10.77
2022-11-11T13:01:53.705Z,10.70
2022-11-11T13:05:07.204Z,10.90
2022-11-11T13:08:31.065Z,12.10
2022-11-11T13:11:27.607Z,11.75
2022-11-11T13:14:46.870Z,12.45
2022-11-11T13:17:34.666Z,12.68
2022-11-11T13:20:37.168Z,12.40
2022-11-11T13:23:26.336Z,13.40
2022-11-11T13:26:26.856Z,14.15
2022-11-11T13:29:48.232Z,13.65
2022-11-11T13:32:41.885Z,14.43
2022-11-11T13:35:33.668Z,15.50
2022-11-11T13:38:34.431Z,13.88
2022-11-11T13:41:25.769Z,15.35
2022-11-11T13:44:24.687Z,14.65
2022-11-11T13:47:19.484Z,14.02
2022-11-11T13:50:09.631Z,15.07
2022-11-11T13:53:01.973Z,14.00
2022-11-11T13:55:55.065Z,14.70
2022-11-11T13:58:49.088Z,15.50
2022-11-11T14:01:42.911Z,15.10
2022-11-11T14:04:32.215Z,15.20
2022-11-11T14:07:50.328Z,14.13
2022-11-11T14:10:55.756Z,14.25
2022-11-11T14:13:44.237Z,14.93
2022-11-11T14:17:03.081Z,14.05
2022-11-11T14:19:49.974Z,13.50
2022-11-11T14:22:37.009Z,14.32
2022-11-11T14:25:27.715Z,13.18
2022-11-11T14:28:24.346Z,14.48
2022-11-11T14:31:52.500Z,14.88
2022-11-11T14:34:53.256Z,14.00
2022-11-11T14:38:14.304Z,13.37
2022-11-11T14:41:35.229Z,13.30
2022-11-11T14:44:45.121Z,14.65
2022-11-11T14:47:37.181Z,15.30
2022-11-11T14:50:45.729Z,15.50
2022-11-11T14:53:39.830Z,14.80
2022-11-11T14:56:29.355Z,14.82
2022-11-11T14:59:22.296Z,14.63
2022-11-11T15:02:23.969Z,15.65
2022-11-11T15:05:17.812Z,15.40
2022-11-11T15:08:24.371Z,13.70
2022-11-11T15:11:28.509Z,15.20
2022-11-11T15:14:36.216Z,14.57
2022-11-11T15:17:36.369Z,15.75
2022-11-11T15:20:44.465Z,14.75
2022-11-11T15:23:38.701Z,14.88
2022-11-11T15:26:35.719Z,15.60
2022-11-11T15:29:41.257Z,14.25
2022-11-11T15:32:38.735Z,14.63
2022-11-11T15:35:35.457Z,14.27
2022-11-11T15:38:22.976Z,13.38
2022-11-11T15:41:24.380Z,13.77
2022-11-11T15:44:22.220Z,13.32
2022-11-11T15:47:15.618Z,12.85
2022-11-11T15:50:04.093Z,13.05
2022-11-11T15:52:56.436Z,12.90
2022-11-11T15:55:53.107Z,12.23
2022-11-11T15:58:40.007Z,12.88
2022-11-11T16:01:30.048Z,11.95
2022-11-11T16:04:53.309Z,11.60
2022-11-11T16:07:33.355Z,12.17
2022-11-11T16:10:27.016Z,11.73
2022-11-11T16:13:18.292Z,11.73
2022-11-11T16:16:09.953Z,11.82
2022-11-11T16:19:04.491Z,10.93
2022-11-11T16:21:56.868Z,10.93
2022-11-11T16:24:46.495Z,11.60
2022-11-11T16:27:35.065Z,11.07
2022-11-11T16:30:32.513Z,12.20
2022-11-11T16:33:35.537Z,10.98
2022-11-11T16:36:22.512Z,10.88
2022-11-11T16:39:16.833Z,11.90
2022-11-11T16:42:07.713Z,11.43
2022-11-11T16:45:00.340Z,10.30
2022-11-11T16:47:49.323Z,10.32
2022-11-11T16:50:55.435Z,10.68
2022-11-11T16:53:45.776Z,9.93
2022-11-11T16:56:33.894Z,9.13
2022-11-11T16:59:26.654Z,10.18
2022-11-11T17:02:18.435Z,9.40
2022-11-11T17:05:06.498Z,9.43
2022-11-11T17:07:53.755Z,8.77
2022-11-11T17:10:41.922Z,8.60
2022-11-11T17:13:29.223Z,8.25
2022-11-11T17:16:17.668Z,8.30
2022-11-11T17:19:05.534Z,8.43
2022-11-11T17:21:52.713Z,6.68
2022-11-11T17:24:40.642Z,7.78
2022-11-11T17:27:31.901Z,6.22
2022-11-11T17:30:18.951Z,6.35
2022-11-11T17:33:07.338Z,8.30
2022-11-11T17:35:55.559Z,6.25
2022-11-11T17:38:42.497Z,6.13
2022-11-11T17:41:29.852Z,5.88
2022-11-11T17:44:16.939Z,6.45
2022-11-11T17:47:04.341Z,4.70
2022-11-11T17:49:57.350Z,4.80
2022-11-11T17:52:44.722Z,4.90
2022-11-11T17:55:33.203Z,4.97
2022-11-11T17:58:20.270Z,4.22
2022-11-11T18:01:08.821Z,5.53
2022-11-11T18:03:59.434Z,4.88
2022-11-11T18:06:48.606Z,3.50
2022-11-11T18:09:35.975Z,4.25
2022-11-11T18:12:23.146Z,4.13
2022-11-11T18:15:13.313Z,4.25
2022-11-11T18:18:00.071Z,5.13
2022-11-11T18:20:46.987Z,5.20
2022-11-11T18:23:37.279Z,4.93
2022-11-11T18:26:24.397Z,5.77
2022-11-11T18:29:11.981Z,5.90
2022-11-11T18:31:59.594Z,7.13
2022-11-11T18:34:46.552Z,6.35
2022-11-11T18:37:33.893Z,5.30
2022-11-11T18:40:22.533Z,5.15
2022-11-11T18:43:09.865Z,5.15
2022-11-11T18:45:56.916Z,4.97
2022-11-11T18:48:44.687Z,5.63
2022-11-11T18:51:34.878Z,4.18
2022-11-11T18:54:26.271Z,4.80
2022-11-11T18:57:17.662Z,4.30
2022-11-11T19:00:05.503Z,4.53
2022-11-11T19:02:52.680Z,4.45
2022-11-11T19:05:39.640Z,4.00
2022-11-11T19:08:26.843Z,4.05
2022-11-11T19:11:14.246Z,4.50
2022-11-11T19:14:03.400Z,4.18
2022-11-11T19:16:50.402Z,4.70
2022-11-11T19:19:37.660Z,4.35
2022-11-11T19:22:24.903Z,4.60
2022-11-11T19:25:12.182Z,4.53
2022-11-11T19:27:59.582Z,4.28
2022-11-11T19:30:47.925Z,4.53
2022-11-11T19:33:36.100Z,4.20
2022-11-11T19:36:27.159Z,4.60
2022-11-11T19:39:14.280Z,4.32
2022-11-11T19:42:01.220Z,4.65
2022-11-11T19:44:48.621Z,4.32
2022-11-11T19:47:37.353Z,4.72
2022-11-11T19:50:24.362Z,4.80
2022-11-11T19:53:13.390Z,4.13
2022-11-11T19:56:00.750Z,5.03
2022-11-11T19:58:49.080Z,5.18
2022-11-11T20:01:37.226Z,4.45
2022-11-11T20:04:25.560Z,5.10
2022-11-11T20:07:12.586Z,4.18
2022-11-11T20:09:59.948Z,4.13
2022-11-11T20:12:48.321Z,4.45
2022-11-11T20:15:36.266Z,4.05
2022-11-11T20:18:23.363Z,4.50
2022-11-11T20:21:13.288Z,3.90
2022-11-11T20:24:01.639Z,3.55
2022-11-11T20:26:52.294Z,3.67
2022-11-11T20:29:40.216Z,3.80
2022-11-11T20:32:30.498Z,3.50
2022-11-11T20:35:17.918Z,3.40
2022-11-11T20:38:06.415Z,2.78
2022-11-11T20:41:00.282Z,2.88
2022-11-11T20:43:48.301Z,2.47
2022-11-11T20:46:35.705Z,2.13
2022-11-11T20:49:22.986Z,2.53
2022-11-11T20:52:12.001Z,2.10
2022-11-11T20:55:00.734Z,2.10
2022-11-11T20:57:47.845Z,2.33
2022-11-11T21:00:35.427Z,1.80
2022-11-11T21:03:23.172Z,1.95
2022-11-11T21:06:11.917Z,1.77
2022-11-11T21:08:59.837Z,1.70
2022-11-11T21:11:48.747Z,1.58
2022-11-11T21:14:35.948Z,1.95
2022-11-11T21:17:23.282Z,1.63
2022-11-11T21:20:10.976Z,1.38
2022-11-11T21:22:58.705Z,1.40
2022-11-11T21:25:45.962Z,1.20
2022-11-11T21:28:36.098Z,1.48
2022-11-11T21:31:25.102Z,1.40
2022-11-11T21:34:14.164Z,1.90
2022-11-11T21:37:01.403Z,1.77
2022-11-11T21:39:48.765Z,1.73
2022-11-11T21:42:35.827Z,2.30
2022-11-11T21:45:24.684Z,2.05
2022-11-11T21:48:12.041Z,2.30
2022-11-11T21:51:04.141Z,2.33
2022-11-11T21:53:55.615Z,2.28
2022-11-11T21:56:47.583Z,2.33
2022-11-11T21:59:34.840Z,2.35
2022-11-11T22:02:24.576Z,1.67
2022-11-11T22:05:12.047Z,1.52
2022-11-11T22:07:59.384Z,1.67
2022-11-11T22:10:46.847Z,1.63
2022-11-11T22:13:35.413Z,1.52
2022-11-11T22:16:25.164Z,1.40
2022-11-11T22:19:16.147Z,1.23
2022-11-11T22:22:03.409Z,1.30
2022-11-11T22:24:50.767Z,1.35
2022-11-11T22:27:38.132Z,1.70
2022-11-11T22:30:25.530Z,1.35
2022-11-11T22:33:13.054Z,1.50
2022-11-11T22:36:04.172Z,1.63
2022-11-11T22:38:51.889Z,1.80
2022-11-11T22:41:40.802Z,1.77
2022-11-11T22:44:28.140Z,1.80
2022-11-11T22:47:15.599Z,1.35
2022-11-11T22:50:02.847Z,1.75
2022-11-11T22:52:52.641Z,1.50
2022-11-11T22:55:43.014Z,1.65
2022-11-11T22:58:34.060Z,1.80
2022-11-11T23:01:29.128Z,1.20
2022-11-11T23:04:17.687Z,1.50
2022-11-11T23:07:05.070Z,1.40
2022-11-11T23:09:54.032Z,1.10
2022-11-11T23:12:41.340Z,0.65
2022-11-11T23:15:28.938Z,0.90
2022-11-11T23:18:16.282Z,0.60
2022-11-11T23:21:06.130Z,0.88
2022-11-11T23:23:53.450Z,0.70
2022-11-11T23:26:43.709Z,0.70
2022-11-11T23:29:31.716Z,1.40
2022-11-11T23:32:18.987Z,0.52
2022-11-11T23:35:07.062Z,0.73
2022-11-11T23:37:54.202Z,0.80
2022-11-11T23:40:41.603Z,0.80
2022-11-11T23:43:30.664Z,0.75
2022-11-11T23:46:17.468Z,0.68
2022-11-11T23:49:04.653Z,0.47
2022-11-11T23:51:51.959Z,0.47
2022-11-11T23:54:38.901Z,0.60
2022-11-11T23:57:26.102Z,0.68
